createdAt,value
2023-05-23T00:00:51.620Z,38.19
2023-05-23T00:01:51.627Z,38.18
2023-05-23T00:02:51.657Z,38.12
2023-05-23T00:03:51.620Z,38.13
2023-05-23T00:04:51.531Z,38.14
2023-05-23T00:05:51.517Z,38.17
2023-05-23T00:06:51.493Z,38.17
2023-05-23T00:07:51.474Z,38.14
2023-05-23T00:08:51.514Z,38.17
2023-05-23T00:09:51.442Z,38.16
2023-05-23T00:10:51.446Z,38.12
2023-05-23T00:11:51.413Z,38.19
2023-05-23T00:12:51.391Z,38.14
2023-05-23T00:13:51.403Z,38.15
2023-05-23T00:14:51.374Z,38.13
2023-05-23T00:15:51.344Z,38.11
2023-05-23T00:16:51.358Z,38.17
2023-05-23T00:17:51.360Z,38.14
2023-05-23T00:18:51.339Z,38.16
2023-05-23T00:19:51.333Z,38.12
2023-05-23T00:20:51.255Z,38.12
2023-05-23T00:21:51.296Z,38.13
2023-05-23T00:22:51.208Z,38.09
2023-05-23T00:23:51.195Z,38.13
2023-05-23T00:24:51.277Z,38.13
2023-05-23T00:25:51.188Z,38.13
2023-05-23T00:26:51.159Z,38.13
2023-05-23T00:27:51.150Z,38.13
2023-05-23T00:28:51.125Z,38.14
2023-05-23T00:29:51.133Z,38.16
2023-05-23T00:30:51.125Z,38.12
2023-05-23T00:31:51.090Z,38.09
2023-05-23T00:32:51.101Z,38.10
2023-05-23T00:33:51.070Z,38.09
2023-05-23T00:34:51.047Z,38.09
2023-05-23T00:35:51.054Z,38.11
2023-05-23T00:36:51.029Z,38.11
2023-05-23T00:37:51.023Z,38.07
2023-05-23T00:38:50.988Z,38.05
2023-05-23T00:39:50.989Z,38.07
2023-05-23T00:40:51.050Z,38.05
2023-05-23T00:41:52.258Z,38.00
2023-05-23T00:42:51.902Z,38.11
2023-05-23T00:43:50.845Z,38.06
2023-05-23T00:44:50.792Z,38.10
2023-05-23T00:45:50.766Z,38.13
2023-05-23T00:46:50.767Z,38.11
2023-05-23T00:47:53.232Z,38.09
2023-05-23T00:48:50.605Z,38.05
2023-05-23T00:49:50.588Z,38.12
2023-05-23T00:50:50.507Z,38.09
2023-05-23T00:51:50.454Z,38.05
2023-05-23T00:52:50.404Z,38.08
2023-05-23T00:53:50.357Z,38.11
2023-05-23T00:54:50.300Z,38.05
2023-05-23T00:55:51.208Z,38.08
2023-05-23T00:56:50.310Z,38.09
2023-05-23T00:57:50.221Z,38.11
2023-05-23T00:58:50.115Z,38.11
2023-05-23T00:59:50.088Z,38.11
2023-05-23T01:00:50.023Z,38.10
2023-05-23T01:01:50.052Z,38.13
2023-05-23T01:02:50.035Z,38.09
2023-05-23T01:03:49.960Z,38.10
2023-05-23T01:04:49.831Z,38.04
2023-05-23T01:05:49.781Z,38.07
2023-05-23T01:06:49.728Z,38.03
2023-05-23T01:07:49.688Z,38.11
2023-05-23T01:08:50.254Z,38.08
2023-05-23T01:09:49.588Z,38.06
2023-05-23T01:10:50.208Z,38.11
2023-05-23T01:11:49.495Z,38.06
2023-05-23T01:12:49.525Z,38.03
2023-05-23T01:13:49.391Z,38.01
2023-05-23T01:14:49.362Z,38.01
2023-05-23T01:15:49.304Z,38.02
2023-05-23T01:16:49.459Z,38.06
2023-05-23T01:17:49.223Z,38.01
2023-05-23T01:18:49.184Z,38.05
2023-05-23T01:19:49.201Z,38.03
2023-05-23T01:20:49.094Z,38.02
2023-05-23T01:21:49.038Z,38.01
2023-05-23T01:22:48.984Z,38.06
2023-05-23T01:23:48.932Z,38.11
2023-05-23T01:24:48.901Z,38.11
2023-05-23T01:25:48.826Z,38.09
2023-05-23T01:26:48.781Z,38.12
2023-05-23T01:27:48.763Z,38.09
2023-05-23T01:28:48.793Z,38.13
2023-05-23T01:29:48.660Z,38.08
2023-05-23T01:30:48.657Z,38.06
2023-05-23T01:31:48.597Z,38.03
2023-05-23T01:32:48.593Z,38.05
2023-05-23T01:33:48.536Z,38.06
2023-05-23T01:34:48.409Z,38.03
2023-05-23T01:35:48.364Z,38.03
2023-05-23T01:36:48.391Z,38.06
2023-05-23T01:37:48.262Z,38.03
2023-05-23T01:38:48.211Z,38.07
2023-05-23T01:39:48.184Z,38.05
2023-05-23T01:40:48.129Z,37.99
2023-05-23T01:41:48.721Z,38.01
2023-05-23T01:42:48.079Z,38.05
2023-05-23T01:43:48.066Z,38.02
2023-05-23T01:44:48.158Z,38.05
2023-05-23T01:45:48.077Z,38.06
2023-05-23T01:46:48.028Z,38.02
2023-05-23T01:47:48.037Z,38.01
2023-05-23T01:48:48.072Z,38.05
2023-05-23T01:49:48.002Z,37.99
2023-05-23T01:50:47.979Z,38.03
2023-05-23T01:51:47.957Z,38.02
2023-05-23T01:52:47.938Z,38.02
2023-05-23T01:53:47.984Z,38.03
2023-05-23T01:54:47.915Z,38.05
2023-05-23T01:55:47.935Z,38.01
2023-05-23T01:56:47.903Z,38.01
2023-05-23T01:57:47.984Z,37.96
2023-05-23T01:58:47.898Z,37.98
2023-05-23T01:59:47.872Z,38.02
2023-05-23T02:00:48.003Z,38.03
2023-05-23T02:01:47.861Z,38.03
2023-05-23T02:02:47.943Z,37.97
2023-05-23T02:03:47.836Z,37.99
2023-05-23T02:04:47.846Z,37.99
2023-05-23T02:05:47.830Z,37.99
2023-05-23T02:06:47.896Z,37.99
2023-05-23T02:07:47.847Z,38.03
2023-05-23T02:08:47.804Z,38.02
2023-05-23T02:09:47.797Z,37.99
2023-05-23T02:10:47.778Z,37.99
2023-05-23T02:11:47.781Z,37.98
2023-05-23T02:12:47.779Z,37.97
2023-05-23T02:13:47.774Z,38.01
2023-05-23T02:14:47.755Z,38.02
2023-05-23T02:15:47.744Z,38.02
2023-05-23T02:16:47.872Z,37.95
2023-05-23T02:17:48.302Z,37.96
2023-05-23T02:18:47.739Z,37.96
2023-05-23T02:19:47.714Z,37.95
2023-05-23T02:20:47.701Z,37.99
2023-05-23T02:21:47.699Z,37.97
2023-05-23T02:22:47.708Z,37.99
2023-05-23T02:23:47.670Z,37.99
2023-05-23T02:24:47.672Z,38.03
2023-05-23T02:25:47.667Z,38.04
2023-05-23T02:26:47.661Z,38.03
2023-05-23T02:27:47.641Z,37.98
2023-05-23T02:28:47.643Z,38.01
2023-05-23T02:29:47.647Z,38.02
2023-05-23T02:30:47.665Z,37.97
2023-05-23T02:31:47.697Z,37.97
2023-05-23T02:32:47.820Z,37.95
2023-05-23T02:33:47.604Z,37.98
2023-05-23T02:34:47.605Z,37.98
2023-05-23T02:35:47.593Z,37.99
2023-05-23T02:36:47.587Z,37.94
2023-05-23T02:37:47.627Z,37.96
2023-05-23T02:38:47.558Z,37.98
2023-05-23T02:39:47.554Z,37.95
2023-05-23T02:40:47.568Z,37.92
2023-05-23T02:41:47.526Z,37.95
2023-05-23T02:42:47.528Z,37.95
2023-05-23T02:43:47.533Z,37.91
2023-05-23T02:44:47.523Z,37.95
2023-05-23T02:45:47.497Z,37.92
2023-05-23T02:46:47.572Z,37.91
2023-05-23T02:47:47.525Z,37.95
2023-05-23T02:48:47.568Z,37.99
2023-05-23T02:49:47.488Z,37.94
2023-05-23T02:50:47.478Z,37.95
2023-05-23T02:51:47.553Z,37.94
2023-05-23T02:52:47.469Z,37.91
2023-05-23T02:53:47.533Z,37.95
2023-05-23T02:54:47.448Z,37.89
2023-05-23T02:55:47.437Z,37.94
2023-05-23T02:56:47.478Z,37.91
2023-05-23T02:57:47.442Z,37.92
2023-05-23T02:58:47.411Z,37.94
2023-05-23T02:59:47.411Z,37.92
2023-05-23T03:00:47.390Z,37.91
2023-05-23T03:01:47.404Z,37.91
2023-05-23T03:02:48.218Z,37.88
2023-05-23T03:03:47.461Z,37.86
2023-05-23T03:04:47.453Z,37.92
2023-05-23T03:05:47.343Z,37.90
2023-05-23T03:06:47.337Z,37.87
2023-05-23T03:07:47.325Z,37.91
2023-05-23T03:08:47.318Z,37.90
2023-05-23T03:09:47.381Z,37.91
2023-05-23T03:10:47.296Z,37.86
2023-05-23T03:11:47.259Z,37.91
2023-05-23T03:12:47.256Z,37.87
2023-05-23T03:13:47.219Z,37.85
2023-05-23T03:14:47.195Z,37.86
2023-05-23T03:15:47.172Z,37.87
2023-05-23T03:16:47.217Z,37.90
2023-05-23T03:17:47.152Z,37.90
2023-05-23T03:18:47.109Z,37.90
2023-05-23T03:19:47.084Z,37.87
2023-05-23T03:20:47.162Z,37.90
2023-05-23T03:21:47.044Z,37.87
2023-05-23T03:22:47.009Z,37.89
2023-05-23T03:23:46.988Z,37.90
2023-05-23T03:24:46.977Z,37.84
2023-05-23T03:25:47.872Z,37.88
2023-05-23T03:26:46.928Z,37.83
2023-05-23T03:27:46.896Z,37.85
2023-05-23T03:28:46.881Z,37.84
2023-05-23T03:29:47.251Z,37.95
2023-05-23T03:30:46.831Z,37.89
2023-05-23T03:31:46.838Z,37.87
2023-05-23T03:32:46.816Z,37.91
2023-05-23T03:33:46.767Z,37.91
2023-05-23T03:34:46.732Z,37.87
2023-05-23T03:35:46.707Z,37.87
2023-05-23T03:36:46.776Z,37.91
2023-05-23T03:37:46.737Z,37.88
2023-05-23T03:38:46.657Z,37.90
2023-05-23T03:39:46.611Z,37.88
2023-05-23T03:40:46.580Z,37.86
2023-05-23T03:41:46.561Z,37.91
2023-05-23T03:42:46.543Z,37.87
2023-05-23T03:43:47.257Z,37.88
2023-05-23T03:44:46.589Z,37.86
2023-05-23T03:45:46.523Z,37.87
2023-05-23T03:46:46.438Z,37.90
2023-05-23T03:47:46.415Z,37.88
2023-05-23T03:48:46.395Z,37.92
2023-05-23T03:49:46.380Z,37.83
2023-05-23T03:50:46.343Z,37.86
2023-05-23T03:51:46.320Z,37.87
2023-05-23T03:52:46.862Z,37.86
2023-05-23T03:53:46.258Z,37.86
2023-05-23T03:54:46.288Z,37.87
2023-05-23T03:55:46.265Z,37.87
2023-05-23T03:56:46.188Z,37.88
2023-05-23T03:57:46.176Z,37.86
2023-05-23T03:58:46.147Z,37.90
2023-05-23T03:59:46.113Z,37.83
2023-05-23T04:00:46.092Z,37.87
2023-05-23T04:01:46.158Z,37.84
2023-05-23T04:02:46.145Z,37.87
2023-05-23T04:03:46.088Z,37.83
2023-05-23T04:04:46.066Z,37.81
2023-05-23T04:05:46.016Z,37.83
2023-05-23T04:06:45.944Z,37.79
2023-05-23T04:07:45.948Z,37.82
2023-05-23T04:08:46.005Z,37.84
2023-05-23T04:09:45.868Z,37.83
2023-05-23T04:10:45.838Z,37.86
2023-05-23T04:11:45.908Z,37.83
2023-05-23T04:12:45.803Z,37.78
2023-05-23T04:13:45.766Z,37.83
2023-05-23T04:14:45.737Z,37.78
2023-05-23T04:15:45.748Z,37.83
2023-05-23T04:16:45.746Z,37.83
2023-05-23T04:17:45.722Z,37.87
2023-05-23T04:18:45.651Z,37.87
2023-05-23T04:19:45.650Z,37.87
2023-05-23T04:20:45.614Z,37.87
2023-05-23T04:21:45.589Z,37.86
2023-05-23T04:22:45.558Z,37.85
2023-05-23T04:23:45.537Z,37.89
2023-05-23T04:24:45.607Z,37.84
2023-05-23T04:25:45.497Z,37.85
2023-05-23T04:26:46.274Z,37.86
2023-05-23T04:27:45.496Z,37.83
2023-05-23T04:28:45.502Z,37.84
2023-05-23T04:29:45.515Z,37.89
2023-05-23T04:30:45.476Z,37.85
2023-05-23T04:31:45.523Z,37.85
2023-05-23T04:32:45.508Z,37.85
2023-05-23T04:33:45.478Z,37.83
2023-05-23T04:34:45.469Z,37.88
2023-05-23T04:35:45.816Z,37.84
2023-05-23T04:36:45.468Z,37.84
2023-05-23T04:37:45.496Z,37.86
2023-05-23T04:38:45.459Z,37.87
2023-05-23T04:39:45.460Z,37.81
2023-05-23T04:40:45.559Z,37.84
2023-05-23T04:41:45.475Z,37.85
2023-05-23T04:42:45.477Z,37.83
2023-05-23T04:43:45.488Z,37.88
2023-05-23T04:44:45.491Z,37.86
2023-05-23T04:45:45.469Z,37.84
2023-05-23T04:46:45.596Z,37.88
2023-05-23T04:47:45.503Z,37.84
2023-05-23T04:48:46.420Z,37.91
2023-05-23T04:49:45.397Z,37.84
2023-05-23T04:50:45.332Z,37.86
2023-05-23T04:51:45.285Z,37.84
2023-05-23T04:52:45.249Z,37.92
2023-05-23T04:53:45.273Z,37.90
2023-05-23T04:54:45.182Z,37.88
2023-05-23T04:55:45.113Z,37.87
2023-05-23T04:56:45.155Z,37.89
2023-05-23T04:57:45.019Z,37.85
2023-05-23T04:58:44.964Z,37.88
2023-05-23T04:59:45.307Z,37.88
2023-05-23T05:00:45.153Z,37.90
2023-05-23T05:01:44.983Z,37.88
2023-05-23T05:02:44.880Z,37.84
2023-05-23T05:03:44.914Z,37.84
2023-05-23T05:04:44.865Z,37.92
2023-05-23T05:05:44.856Z,37.86
2023-05-23T05:06:44.847Z,37.83
2023-05-23T05:07:45.896Z,37.88
2023-05-23T05:08:44.864Z,37.86
2023-05-23T05:09:44.869Z,37.83
2023-05-23T05:10:44.875Z,37.87
2023-05-23T05:11:45.799Z,37.86
2023-05-23T05:12:44.940Z,37.85
2023-05-23T05:13:44.865Z,37.85
2023-05-23T05:14:44.870Z,37.83
2023-05-23T05:15:44.874Z,37.84
2023-05-23T05:16:44.913Z,38.14
2023-05-23T05:17:45.698Z,38.10
2023-05-23T05:18:44.888Z,37.92
2023-05-23T05:19:44.935Z,38.09
2023-05-23T05:20:45.798Z,38.51
2023-05-23T05:21:44.915Z,38.37
2023-05-23T05:22:44.929Z,38.46
2023-05-23T05:23:45.803Z,38.66
2023-05-23T05:24:44.946Z,38.64
2023-05-23T05:25:44.990Z,38.77
2023-05-23T05:26:45.860Z,38.99
2023-05-23T05:27:44.956Z,39.11
2023-05-23T05:28:45.044Z,39.19
2023-05-23T05:29:44.953Z,39.23
2023-05-23T05:30:45.002Z,39.25
2023-05-23T05:31:44.958Z,39.25
2023-05-23T05:32:44.961Z,39.37
2023-05-23T05:33:44.925Z,39.58
2023-05-23T05:34:45.987Z,39.72
2023-05-23T05:35:44.930Z,39.89
2023-05-23T05:36:44.832Z,39.99
2023-05-23T05:37:44.804Z,40.10
2023-05-23T05:38:44.757Z,40.18
2023-05-23T05:39:44.814Z,40.28
2023-05-23T05:40:44.689Z,40.28
2023-05-23T05:41:44.647Z,40.42
2023-05-23T05:42:44.602Z,40.46
2023-05-23T05:43:44.558Z,40.51
2023-05-23T05:44:44.602Z,40.52
2023-05-23T05:45:44.551Z,40.61
2023-05-23T05:46:44.588Z,40.64
2023-05-23T05:47:44.448Z,40.61
2023-05-23T05:48:44.383Z,40.68
2023-05-23T05:49:44.342Z,40.75
2023-05-23T05:50:44.384Z,40.85
2023-05-23T05:51:44.262Z,40.95
2023-05-23T05:52:44.227Z,41.07
2023-05-23T05:53:44.187Z,41.17
2023-05-23T05:54:44.340Z,41.24
2023-05-23T05:55:44.109Z,41.26
2023-05-23T05:56:44.083Z,41.33
2023-05-23T05:57:44.032Z,41.44
2023-05-23T05:58:44.009Z,41.49
2023-05-23T05:59:43.971Z,41.62
2023-05-23T06:00:44.899Z,41.70
2023-05-23T06:01:43.890Z,41.78
2023-05-23T06:02:44.007Z,41.87
2023-05-23T06:03:44.090Z,41.84
2023-05-23T06:04:43.819Z,41.85
2023-05-23T06:05:43.746Z,41.90
2023-05-23T06:06:43.708Z,41.95
2023-05-23T06:07:43.670Z,41.97
2023-05-23T06:08:43.636Z,42.00
2023-05-23T06:09:43.826Z,41.97
2023-05-23T06:10:43.761Z,41.99
2023-05-23T06:11:44.325Z,41.96
2023-05-23T06:12:43.551Z,41.93
2023-05-23T06:13:43.444Z,41.93
2023-05-23T06:14:43.410Z,41.91
2023-05-23T06:15:43.376Z,41.95
2023-05-23T06:16:44.499Z,42.00
2023-05-23T06:17:43.356Z,41.92
2023-05-23T06:18:43.321Z,41.86
2023-05-23T06:19:43.334Z,41.83
2023-05-23T06:20:43.485Z,41.79
2023-05-23T06:21:43.471Z,41.75
2023-05-23T06:22:43.437Z,41.82
2023-05-23T06:23:43.469Z,41.87
2023-05-23T06:24:43.513Z,41.95
2023-05-23T06:25:43.539Z,42.01
2023-05-23T06:26:43.610Z,42.03
2023-05-23T06:27:43.582Z,42.04
2023-05-23T06:28:43.618Z,41.97
2023-05-23T06:29:43.654Z,42.03
2023-05-23T06:30:44.489Z,42.10
2023-05-23T06:31:43.700Z,42.15
2023-05-23T06:32:43.823Z,42.28
2023-05-23T06:33:43.740Z,42.35
2023-05-23T06:34:43.768Z,42.36
2023-05-23T06:35:44.327Z,42.34
2023-05-23T06:36:43.824Z,42.43
2023-05-23T06:37:43.882Z,42.57
2023-05-23T06:38:43.913Z,42.63
2023-05-23T06:39:43.910Z,42.67
2023-05-23T06:40:43.927Z,42.77
2023-05-23T06:41:43.970Z,42.78
2023-05-23T06:42:43.986Z,42.74
2023-05-23T06:43:44.003Z,42.65
2023-05-23T06:44:44.129Z,42.65
2023-05-23T06:45:44.101Z,42.72
2023-05-23T06:46:44.091Z,42.70
2023-05-23T06:47:44.160Z,42.73
2023-05-23T06:48:44.234Z,42.79
2023-05-23T06:49:44.178Z,42.77
2023-05-23T06:50:44.276Z,42.93
2023-05-23T06:51:44.304Z,42.95
2023-05-23T06:52:44.227Z,42.99
2023-05-23T06:53:44.254Z,43.11
2023-05-23T06:54:44.289Z,43.15
2023-05-23T06:55:44.284Z,43.22
2023-05-23T06:56:44.301Z,43.16
2023-05-23T06:57:44.343Z,43.27
2023-05-23T06:58:47.049Z,43.31
2023-05-23T06:59:44.368Z,43.37
2023-05-23T07:00:44.467Z,43.39
2023-05-23T07:01:44.280Z,43.44
2023-05-23T07:02:44.258Z,43.57
2023-05-23T07:03:44.165Z,43.55
2023-05-23T07:04:44.278Z,43.61
2023-05-23T07:05:44.117Z,43.58
2023-05-23T07:06:44.049Z,43.63
2023-05-23T07:07:43.991Z,43.68
2023-05-23T07:08:43.958Z,43.70
2023-05-23T07:09:43.928Z,43.59
2023-05-23T07:10:43.875Z,43.59
2023-05-23T07:11:43.928Z,43.63
2023-05-23T07:12:43.803Z,43.72
2023-05-23T07:13:43.770Z,43.79
2023-05-23T07:14:43.749Z,43.72
2023-05-23T07:15:43.685Z,43.76
2023-05-23T07:16:43.693Z,43.75
2023-05-23T07:17:43.645Z,43.77
2023-05-23T07:18:43.595Z,43.79
2023-05-23T07:19:43.589Z,43.97
2023-05-23T07:20:44.448Z,44.56
2023-05-23T07:21:44.322Z,45.06
2023-05-23T07:22:43.421Z,45.32
2023-05-23T07:23:44.270Z,45.66
2023-05-23T07:24:43.358Z,45.76
2023-05-23T07:25:53.768Z,45.64
2023-05-23T07:26:44.270Z,45.55
2023-05-23T07:27:43.235Z,45.39
2023-05-23T07:28:43.185Z,45.39
2023-05-23T07:29:43.152Z,45.50
2023-05-23T07:30:43.118Z,45.62
2023-05-23T07:31:43.117Z,45.75
2023-05-23T07:32:43.089Z,45.91
2023-05-23T07:33:43.007Z,45.93
2023-05-23T07:34:42.945Z,46.21
2023-05-23T07:35:42.913Z,46.38
2023-05-23T07:36:42.891Z,46.48
2023-05-23T07:37:42.839Z,46.51
2023-05-23T07:38:42.805Z,46.62
2023-05-23T07:39:42.774Z,46.66
2023-05-23T07:40:42.934Z,46.70
2023-05-23T07:41:42.704Z,46.66
2023-05-23T07:42:42.726Z,46.72
2023-05-23T07:43:42.723Z,46.64
2023-05-23T07:44:42.576Z,46.80
2023-05-23T07:45:42.540Z,46.80
2023-05-23T07:46:42.541Z,46.90
2023-05-23T07:47:42.552Z,46.93
2023-05-23T07:48:42.426Z,47.00
2023-05-23T07:49:42.368Z,47.12
2023-05-23T07:50:42.389Z,47.20
2023-05-23T07:51:42.288Z,47.15
2023-05-23T07:52:42.315Z,47.22
2023-05-23T07:53:42.284Z,47.29
2023-05-23T07:54:42.317Z,47.22
2023-05-23T07:55:42.303Z,47.35
2023-05-23T07:56:42.288Z,47.19
2023-05-23T07:57:42.362Z,47.15
2023-05-23T07:58:42.269Z,47.04
2023-05-23T07:59:42.235Z,47.13
2023-05-23T08:00:42.430Z,47.04
2023-05-23T08:01:42.413Z,47.07
2023-05-23T08:02:42.253Z,47.07
2023-05-23T08:03:42.219Z,47.05
2023-05-23T08:04:42.265Z,46.97
2023-05-23T08:05:42.200Z,47.13
2023-05-23T08:06:52.194Z,47.18
2023-05-23T08:07:43.200Z,47.13
2023-05-23T08:08:42.122Z,47.11
2023-05-23T08:09:42.083Z,47.16
2023-05-23T08:10:42.223Z,46.95
2023-05-23T08:11:41.980Z,46.76
2023-05-23T08:12:41.934Z,46.71
2023-05-23T08:13:41.895Z,46.21
2023-05-23T08:14:50.522Z,46.02
2023-05-23T08:15:42.785Z,45.86
2023-05-23T08:16:41.981Z,45.29
2023-05-23T08:17:41.730Z,45.22
2023-05-23T08:18:41.718Z,45.11
2023-05-23T08:19:41.696Z,45.22
2023-05-23T08:20:41.825Z,44.88
2023-05-23T08:21:41.537Z,44.73
2023-05-23T08:22:41.474Z,44.20
2023-05-23T08:23:42.439Z,44.33
2023-05-23T08:24:41.411Z,43.83
2023-05-23T08:25:41.351Z,44.07
2023-05-23T08:26:41.383Z,44.14
2023-05-23T08:27:41.278Z,44.20
2023-05-23T08:28:41.301Z,44.41
2023-05-23T08:29:41.256Z,44.48
2023-05-23T08:30:41.335Z,44.45
2023-05-23T08:31:41.143Z,44.52
2023-05-23T08:32:41.081Z,44.62
2023-05-23T08:33:41.021Z,44.56
2023-05-23T08:34:40.982Z,44.55
2023-05-23T08:35:40.938Z,44.63
2023-05-23T08:36:40.880Z,44.60
2023-05-23T08:37:40.830Z,44.56
2023-05-23T08:38:40.782Z,44.53
2023-05-23T08:39:40.742Z,44.58
2023-05-23T08:40:40.858Z,44.45
2023-05-23T08:41:40.653Z,44.43
2023-05-23T08:42:40.773Z,44.29
2023-05-23T08:43:40.554Z,44.29
2023-05-23T08:44:40.541Z,44.39
2023-05-23T08:45:40.480Z,44.32
2023-05-23T08:46:40.457Z,44.45
2023-05-23T08:47:41.396Z,44.48
2023-05-23T08:48:40.339Z,44.56
2023-05-23T08:49:40.347Z,44.65
2023-05-23T08:50:40.666Z,44.73
2023-05-23T08:51:40.392Z,44.78
2023-05-23T08:52:40.415Z,44.91
2023-05-23T08:53:40.432Z,44.93
2023-05-23T08:54:40.464Z,44.91
2023-05-23T08:55:41.165Z,44.97
2023-05-23T08:56:40.497Z,45.03
2023-05-23T08:57:40.501Z,45.11
2023-05-23T08:58:40.521Z,45.13
2023-05-23T08:59:40.592Z,45.18
2023-05-23T09:00:40.825Z,45.19
2023-05-23T09:01:40.577Z,45.21
2023-05-23T09:02:40.578Z,45.30
2023-05-23T09:03:40.603Z,45.34
2023-05-23T09:04:40.608Z,45.37
2023-05-23T09:05:40.714Z,45.39
2023-05-23T09:06:40.609Z,45.43
2023-05-23T09:07:40.621Z,45.54
2023-05-23T09:08:40.635Z,45.50
2023-05-23T09:09:40.647Z,45.47
2023-05-23T09:10:40.901Z,45.55
2023-05-23T09:11:40.646Z,45.60
2023-05-23T09:12:40.643Z,45.56
2023-05-23T09:13:40.642Z,45.49
2023-05-23T09:14:40.652Z,45.44
2023-05-23T09:15:40.646Z,45.48
2023-05-23T09:16:40.685Z,45.71
2023-05-23T09:17:40.698Z,45.56
2023-05-23T09:18:40.663Z,45.60
2023-05-23T09:19:40.718Z,45.65
2023-05-23T09:20:40.906Z,45.71
2023-05-23T09:21:40.641Z,45.82
2023-05-23T09:22:40.641Z,45.90
2023-05-23T09:23:40.626Z,46.01
2023-05-23T09:24:40.621Z,46.00
2023-05-23T09:25:40.594Z,46.11
2023-05-23T09:26:40.646Z,46.09
2023-05-23T09:27:40.553Z,45.92
2023-05-23T09:28:40.540Z,45.94
2023-05-23T09:29:40.561Z,45.95
2023-05-23T09:30:40.586Z,45.99
2023-05-23T09:31:40.523Z,45.97
2023-05-23T09:32:40.494Z,46.03
2023-05-23T09:33:41.398Z,45.99
2023-05-23T09:34:40.382Z,46.04
2023-05-23T09:35:40.351Z,46.11
2023-05-23T09:36:40.388Z,46.18
2023-05-23T09:37:40.321Z,46.15
2023-05-23T09:38:40.309Z,46.12
2023-05-23T09:39:40.947Z,46.19
2023-05-23T09:40:40.485Z,46.21
2023-05-23T09:41:40.153Z,46.30
2023-05-23T09:42:40.112Z,46.35
2023-05-23T09:43:40.924Z,46.49
2023-05-23T09:44:40.037Z,46.49
2023-05-23T09:45:40.062Z,46.54
2023-05-23T09:46:39.981Z,46.59
2023-05-23T09:47:39.967Z,46.59
2023-05-23T09:48:39.881Z,46.71
2023-05-23T09:49:39.838Z,46.71
2023-05-23T09:50:40.141Z,46.66
2023-05-23T09:51:39.759Z,46.82
2023-05-23T09:52:39.758Z,46.87
2023-05-23T09:53:39.710Z,46.90
2023-05-23T09:54:39.612Z,46.94
2023-05-23T09:55:39.550Z,46.94
2023-05-23T09:56:39.503Z,46.97
2023-05-23T09:57:39.449Z,47.07
2023-05-23T09:58:39.396Z,47.06
2023-05-23T09:59:39.421Z,47.05
2023-05-23T10:00:39.410Z,47.16
2023-05-23T10:01:39.279Z,47.20
2023-05-23T10:02:39.903Z,47.21
2023-05-23T10:03:39.138Z,47.28
2023-05-23T10:04:39.123Z,47.33
2023-05-23T10:05:39.110Z,47.31
2023-05-23T10:06:39.120Z,47.29
2023-05-23T10:07:39.106Z,47.34
2023-05-23T10:08:39.107Z,47.33
2023-05-23T10:09:39.103Z,47.52
2023-05-23T10:10:39.173Z,47.38
2023-05-23T10:11:39.117Z,47.28
2023-05-23T10:12:39.092Z,47.20
2023-05-23T10:13:39.054Z,47.23
2023-05-23T10:14:39.012Z,47.17
2023-05-23T10:15:38.987Z,47.08
2023-05-23T10:16:39.014Z,47.10
2023-05-23T10:17:40.504Z,47.04
2023-05-23T10:18:38.916Z,47.05
2023-05-23T10:19:38.895Z,47.05
2023-05-23T10:20:38.938Z,46.99
2023-05-23T10:21:39.509Z,46.97
2023-05-23T10:22:38.713Z,46.89
2023-05-23T10:23:38.592Z,46.88
2023-05-23T10:24:38.534Z,46.87
2023-05-23T10:25:39.346Z,46.83
2023-05-23T10:26:38.475Z,46.74
2023-05-23T10:27:38.387Z,46.73
2023-05-23T10:28:38.349Z,46.65
2023-05-23T10:29:38.318Z,46.65
2023-05-23T10:30:38.330Z,46.63
2023-05-23T10:31:38.358Z,46.59
2023-05-23T10:32:38.261Z,46.58
2023-05-23T10:33:38.195Z,46.54
2023-05-23T10:34:38.124Z,46.52
2023-05-23T10:35:38.100Z,46.52
2023-05-23T10:36:38.098Z,46.46
2023-05-23T10:37:38.012Z,46.42
2023-05-23T10:38:37.994Z,46.40
2023-05-23T10:39:37.953Z,46.42
2023-05-23T10:40:37.928Z,46.37
2023-05-23T10:41:37.891Z,46.39
2023-05-23T10:42:37.860Z,46.32
2023-05-23T10:43:37.819Z,46.27
2023-05-23T10:44:37.795Z,46.21
2023-05-23T10:45:37.824Z,46.16
2023-05-23T10:46:37.943Z,46.21
2023-05-23T10:47:37.749Z,46.17
2023-05-23T10:48:37.686Z,46.14
2023-05-23T10:49:37.671Z,46.11
2023-05-23T10:50:37.920Z,46.04
2023-05-23T10:51:37.583Z,46.03
2023-05-23T10:52:38.432Z,46.00
2023-05-23T10:53:37.545Z,46.01
2023-05-23T10:54:37.489Z,45.98
2023-05-23T10:55:37.529Z,45.97
2023-05-23T10:56:37.421Z,45.97
2023-05-23T10:57:37.394Z,45.93
2023-05-23T10:58:37.380Z,45.92
2023-05-23T10:59:37.338Z,45.88
2023-05-23T11:00:37.399Z,45.86
2023-05-23T11:01:37.363Z,45.85
2023-05-23T11:02:37.356Z,45.83
2023-05-23T11:03:37.369Z,45.84
2023-05-23T11:04:37.196Z,45.84
2023-05-23T11:05:37.168Z,45.79
2023-05-23T11:06:37.125Z,45.74
2023-05-23T11:07:37.120Z,45.78
2023-05-23T11:08:47.167Z,45.77
2023-05-23T11:09:38.072Z,45.73
2023-05-23T11:10:36.963Z,45.70
2023-05-23T11:11:36.912Z,45.69
2023-05-23T11:12:36.855Z,45.70
2023-05-23T11:13:36.801Z,45.66
2023-05-23T11:14:36.751Z,45.63
2023-05-23T11:15:36.691Z,45.59
2023-05-23T11:16:36.677Z,45.53
2023-05-23T11:17:36.688Z,45.55
2023-05-23T11:18:36.550Z,45.53
2023-05-23T11:19:36.546Z,45.56
2023-05-23T11:20:36.421Z,45.53
2023-05-23T11:21:36.366Z,45.54
2023-05-23T11:22:36.288Z,45.52
2023-05-23T11:23:36.297Z,45.49
2023-05-23T11:24:36.227Z,45.45
2023-05-23T11:25:36.192Z,45.42
2023-05-23T11:26:36.167Z,45.39
2023-05-23T11:27:36.152Z,45.39
2023-05-23T11:28:36.155Z,45.41
2023-05-23T11:29:36.110Z,45.34
2023-05-23T11:30:36.088Z,45.33
2023-05-23T11:31:36.102Z,45.32
2023-05-23T11:32:36.059Z,45.31
2023-05-23T11:33:36.019Z,45.27
2023-05-23T11:34:35.997Z,45.26
2023-05-23T11:35:35.988Z,45.22
2023-05-23T11:36:35.980Z,45.19
2023-05-23T11:37:35.954Z,45.21
2023-05-23T11:38:35.940Z,45.21
2023-05-23T11:39:35.910Z,45.19
2023-05-23T11:40:35.920Z,45.20
2023-05-23T11:41:35.828Z,45.12
2023-05-23T11:42:35.873Z,45.10
2023-05-23T11:43:35.813Z,45.13
2023-05-23T11:44:35.711Z,45.12
2023-05-23T11:45:35.730Z,45.07
2023-05-23T11:46:35.682Z,45.06
2023-05-23T11:47:36.430Z,45.01
2023-05-23T11:48:35.566Z,44.95
2023-05-23T11:49:35.534Z,45.00
2023-05-23T11:50:35.489Z,44.94
2023-05-23T11:51:36.445Z,44.95
2023-05-23T11:52:35.417Z,44.91
2023-05-23T11:53:35.378Z,44.86
2023-05-23T11:54:35.358Z,44.88
2023-05-23T11:55:35.304Z,44.85
2023-05-23T11:56:35.268Z,44.84
2023-05-23T11:57:35.235Z,44.80
2023-05-23T11:58:35.202Z,44.81
2023-05-23T11:59:35.171Z,44.77
2023-05-23T12:00:35.150Z,44.76
2023-05-23T12:01:35.176Z,44.74
2023-05-23T12:02:35.168Z,44.72
2023-05-23T12:03:35.274Z,44.70
2023-05-23T12:04:35.172Z,44.68
2023-05-23T12:05:34.969Z,44.64
2023-05-23T12:06:34.938Z,44.67
2023-05-23T12:07:34.915Z,44.65
2023-05-23T12:08:34.870Z,44.63
2023-05-23T12:09:34.833Z,44.59
2023-05-23T12:10:34.823Z,44.58
2023-05-23T12:11:34.789Z,44.56
2023-05-23T12:12:34.769Z,44.58
2023-05-23T12:13:34.717Z,44.55
2023-05-23T12:14:34.680Z,44.56
2023-05-23T12:15:34.642Z,44.53
2023-05-23T12:16:34.637Z,44.56
2023-05-23T12:17:34.645Z,44.48
2023-05-23T12:18:34.550Z,44.47
2023-05-23T12:19:34.620Z,44.47
2023-05-23T12:20:34.486Z,44.49
2023-05-23T12:21:34.462Z,44.47
2023-05-23T12:22:34.496Z,44.42
2023-05-23T12:23:35.216Z,44.47
2023-05-23T12:24:34.443Z,44.48
2023-05-23T12:25:34.363Z,44.41
2023-05-23T12:26:34.321Z,44.42
2023-05-23T12:27:34.287Z,44.40
2023-05-23T12:28:34.260Z,44.41
2023-05-23T12:29:35.282Z,44.37
2023-05-23T12:30:34.203Z,44.37
2023-05-23T12:31:34.200Z,44.40
2023-05-23T12:32:34.278Z,44.48
2023-05-23T12:33:34.114Z,45.18
2023-05-23T12:34:34.162Z,45.18
2023-05-23T12:35:34.132Z,45.18
2023-05-23T12:36:34.318Z,45.13
2023-05-23T12:37:34.052Z,44.95
2023-05-23T12:38:34.028Z,44.87
2023-05-23T12:39:34.010Z,44.77
2023-05-23T12:40:33.980Z,45.29
2023-05-23T12:41:33.977Z,45.55
2023-05-23T12:42:33.954Z,45.58
2023-05-23T12:43:33.951Z,45.38
2023-05-23T12:44:33.960Z,45.31
2023-05-23T12:45:33.965Z,45.27
2023-05-23T12:46:33.960Z,45.25
2023-05-23T12:47:33.954Z,45.23
2023-05-23T12:48:33.900Z,45.37
2023-05-23T12:49:33.908Z,45.31
2023-05-23T12:50:33.893Z,45.29
2023-05-23T12:51:33.864Z,45.32
2023-05-23T12:52:33.864Z,45.36